De Winton South Calgary Airport

CEH4 · 艾伯塔, 加拿大

罗盘
风向 的 风向 300° De Winton South Calgary Airport 10/28
风: 5 kt, 2 beaufort

5 kt

改变
0 ft 1.000 2.000 3.000 4.000 5.000
Cloud Cloud Cloud Cloud Cloud Cloud Cloud Cloud
OVC 3.900
METAR CYBW 300400Z AUTO 30005KT 7SM -SN OVC039 M14/M19 A3003 RMK SLP291

METAR De Winton South Calgary Airport - CEH4

De Winton South Calgary Airport是,加拿大中的小机场。 该机场有2条跑道: 10/28 和 16/34. 该领域的国际民航组织标志是CEH4.

这份报告是针对2023年1月29日 21:00, 当地时间在Calgary / Springbank Airport进行的。

机场观察

风向为300°,速度为5 kt。

可见度为7 mi。

有乌云密布在3.900 ft的高度。 破损或更高的上限为3.900 ft。

当前天气为光 雪。 温度为-14 °C,阵风为-22 °C。 露点为-19 °C,相对湿度为66%。 海平面上的气压为30,03 inHg (QNH)。

白天

今天,太阳从08:13升起,在17:23降落。 这适用于De Winton South Calgary Airport,世界夏令时可能有所不同。 当地时间与世界标准时间之间的时差为-7 小时。 当前,没有夏令时有效。

公司介绍

我们没有关于这个机场的公司信息。

体会

到Vliegles.nl去找飞行课程,跳伞和其他飞行体验。 浏览页面,了解De Winton South Calgary Airport附近所有可用的活动。 你也可以使用搜索功能来寻找你所在地附近的特定飞行课程、跳伞或其他飞行体验。

跑道

Id 标题 侧风 逆风 侧风 %
10/28 120°-300° 5 kt 0 %
16/34 179°-359° 4 kt 3 kt 86 %

逆风成分最大的方向会被突出显示,并用于横风计算。 这并不一定意味着这个方向在使用。

乌云

3.900 ft OVC 乌云密布

温度 & 天气

天气 光 雪
温度 -14 °C
露点 -19 °C
相对湿度 66%
风寒 -22 °C
Kp-index 0 (0-9)

评论

SLP291海平面压力为30,39 inHg (30,39 inHg)

白天

日出
08:17 (11:00)
中午
12:50
日落
17:24

小工具

你想在你的网站上有一个关于De Winton South Calgary Airport的当前航空天气(METAR)的小部件吗?

显示HTML代码

我们和第三方通过cookies跟踪您在我们网站上的互联网行为。如果你继续,我们认为你同意我们的饼干政策